Time;durP1;ratioP1;P1;durP2;ratioP2;P2;SDS_P1;SDS_P2;PMS_P1;PMS_P2;Temp;Humidity;BMP_temperature;BMP_pressure;BME280_temperature;BME280_humidity;BME280_pressure;Samples;Min_cycle;Max_cycle;Signal;HPM_P1;HPM_P2
2024/02/04 00:01:29;;;;;;;;;3.00;3.00;;;;;;;;4981251;28;45229;-70
2024/02/04 00:03:54;;;;;;;;;2.00;2.00;;;;;;;;4974878;28;45349;-70
2024/02/04 00:06:19;;;;;;;;;3.00;3.00;;;;;;;;4980756;28;45325;-70
2024/02/04 00:08:44;;;;;;;;;2.00;2.00;;;;;;;;4980881;28;45307;-70
2024/02/04 00:11:11;;;;;;;;;3.00;3.00;;;;;;;;4980717;28;45669;-70
2024/02/04 00:13:37;;;;;;;;;2.50;2.25;;;;;;;;4958129;28;45807;-70
2024/02/04 00:16:02;;;;;;;;;4.00;2.50;;;;;;;;4980583;28;45425;-70
2024/02/04 00:18:27;;;;;;;;;3.00;2.00;;;;;;;;4980919;28;45523;-70
2024/02/04 00:20:52;;;;;;;;;2.00;2.00;;;;;;;;4980800;28;45390;-70
2024/02/04 00:23:17;;;;;;;;;6.00;4.00;;;;;;;;4979933;28;45310;-70
2024/02/04 00:25:43;;;;;;;;;3.00;3.00;;;;;;;;4980567;28;45451;-70
2024/02/04 00:28:11;;;;;;;;;2.33;2.33;;;;;;;;4980737;28;45396;-70
2024/02/04 00:30:36;;;;;;;;;1.75;1.75;;;;;;;;4980697;28;45310;-70
2024/02/04 00:33:03;;;;;;;;;2.67;2.67;;;;;;;;4969016;28;45302;-70
2024/02/04 00:35:28;;;;;;;;;1.00;1.00;;;;;;;;4978509;28;45421;-70
2024/02/04 00:37:53;;;;;;;;;3.00;2.75;;;;;;;;4971111;28;45421;-70
2024/02/04 00:40:18;;;;;;;;;2.00;2.00;;;;;;;;4980550;28;45262;-70
2024/02/04 00:42:44;;;;;;;;;2.00;2.00;;;;;;;;4980437;28;45242;-70
2024/02/04 00:45:09;;;;;;;;;3.00;2.00;;;;;;;;4978178;28;46129;-70
2024/02/04 00:47:34;;;;;;;;;2.00;1.50;;;;;;;;4980373;28;45322;-70
2024/02/04 00:49:59;;;;;;;;;1.33;1.33;;;;;;;;4980307;28;45331;-70
2024/02/04 00:52:24;;;;;;;;;1.00;1.00;;;;;;;;4980371;28;45778;-70
2024/02/04 00:54:50;;;;;;;;;1.00;1.00;;;;;;;;4980004;28;45473;-70
2024/02/04 00:57:15;;;;;;;;;1.67;1.67;;;;;;;;4980022;28;45354;-70
2024/02/04 00:59:40;;;;;;;;;3.00;1.33;;;;;;;;4962657;28;45344;-70
2024/02/04 01:02:06;;;;;;;;;2.00;1.33;;;;;;;;4977813;28;45441;-70
2024/02/04 01:04:31;;;;;;;;;2.00;1.50;;;;;;;;4975209;28;45939;-70
2024/02/04 01:06:56;;;;;;;;;0.00;0.00;;;;;;;;4959585;28;45993;-70
2024/02/04 01:09:21;;;;;;;;;1.00;1.00;;;;;;;;4979324;28;45510;-70
2024/02/04 01:11:47;;;;;;;;;4.00;2.00;;;;;;;;4979932;28;45495;-70
2024/02/04 01:14:12;;;;;;;;;1.00;1.00;;;;;;;;4979350;28;46158;-70
2024/02/04 01:16:37;;;;;;;;;1.00;1.00;;;;;;;;4979689;28;45384;-70
2024/02/04 01:19:02;;;;;;;;;3.33;1.67;;;;;;;;4979802;28;45357;-70
2024/02/04 01:21:27;;;;;;;;;1.00;1.00;;;;;;;;4980037;28;45385;-70
2024/02/04 01:23:53;;;;;;;;;1.00;1.00;;;;;;;;4979649;28;45503;-70
2024/02/04 01:26:18;;;;;;;;;3.00;1.50;;;;;;;;4979830;28;45357;-70
2024/02/04 01:28:43;;;;;;;;;1.75;0.25;;;;;;;;4979975;28;45373;-70
2024/02/04 01:31:08;;;;;;;;;1.00;1.00;;;;;;;;4979862;28;45336;-70
2024/02/04 01:33:33;;;;;;;;;1.67;1.00;;;;;;;;4973082;28;45364;-70
2024/02/04 01:35:59;;;;;;;;;0.00;0.00;;;;;;;;4975051;28;45389;-70
2024/02/04 01:38:24;;;;;;;;;1.00;1.00;;;;;;;;4979663;28;45366;-70
2024/02/04 01:40:52;;;;;;;;;0.67;0.00;;;;;;;;4979964;28;45574;-70
2024/02/04 01:43:17;;;;;;;;;0.00;0.00;;;;;;;;4979393;28;46391;-70
2024/02/04 01:45:42;;;;;;;;;0.00;0.00;;;;;;;;4979506;28;45484;-70
2024/02/04 01:48:08;;;;;;;;;1.67;1.00;;;;;;;;4979556;28;45478;-70
2024/02/04 01:50:33;;;;;;;;;1.75;0.50;;;;;;;;4979594;28;45397;-70
2024/02/04 01:52:59;;;;;;;;;1.67;0.67;;;;;;;;4979299;28;46212;-70
2024/02/04 01:55:24;;;;;;;;;0.00;0.00;;;;;;;;4979548;28;45295;-70
2024/02/04 01:57:49;;;;;;;;;0.25;0.25;;;;;;;;4979312;28;45491;-70
2024/02/04 02:00:15;;;;;;;;;1.00;1.00;;;;;;;;4979578;28;45318;-70
2024/02/04 02:02:41;;;;;;;;;0.50;0.00;;;;;;;;4974129;28;45288;-70
2024/02/04 02:05:07;;;;;;;;;0.00;0.00;;;;;;;;4978166;28;46065;-70
2024/02/04 02:07:32;;;;;;;;;0.50;0.50;;;;;;;;4979255;28;45523;-70
2024/02/04 02:09:57;;;;;;;;;3.67;1.00;;;;;;;;4973944;28;45299;-70
2024/02/04 02:12:24;;;;;;;;;3.00;2.00;;;;;;;;4978920;28;45396;-70
2024/02/04 02:15:18;;;;;;;;;3.00;2.00;;;;;;;;4981260;28;45417;-70
2024/02/04 02:17:49;;;;;;;;;0.50;0.50;;;;;;;;4944378;28;45441;-70
2024/02/04 02:20:27;;;;;;;;;1.00;1.00;;;;;;;;4982566;28;45349;-70
2024/02/04 02:23:11;;;;;;;;;3.00;1.00;;;;;;;;4982822;28;46568;-70
2024/02/04 02:25:36;;;;;;;;;1.50;1.50;;;;;;;;4982476;28;45429;-70
2024/02/04 02:28:01;;;;;;;;;0.50;0.50;;;;;;;;4975425;28;45424;-70
2024/02/04 02:30:27;;;;;;;;;1.00;1.00;;;;;;;;4980430;28;45828;-70
2024/02/04 02:32:52;;;;;;;;;1.00;1.00;;;;;;;;4973409;28;46560;-70
2024/02/04 02:35:17;;;;;;;;;2.00;1.00;;;;;;;;4978368;28;45433;-70
2024/02/04 02:37:42;;;;;;;;;1.25;0.25;;;;;;;;4978361;28;45455;-70
2024/02/04 02:40:11;;;;;;;;;2.00;1.00;;;;;;;;4982270;28;45471;-70
2024/02/04 02:42:38;;;;;;;;;2.50;1.00;;;;;;;;4982259;28;45496;-70
2024/02/04 02:45:04;;;;;;;;;1.00;1.00;;;;;;;;4981922;28;45429;-70
2024/02/04 02:47:29;;;;;;;;;4.25;4.25;;;;;;;;4981589;28;45481;-70
2024/02/04 02:49:54;;;;;;;;;3.00;2.00;;;;;;;;4982027;28;45305;-70
2024/02/04 02:52:20;;;;;;;;;2.50;1.25;;;;;;;;4964560;28;48135;-70
2024/02/04 02:54:45;;;;;;;;;0.75;0.75;;;;;;;;4982176;28;45292;-70
2024/02/04 02:57:10;;;;;;;;;0.00;0.00;;;;;;;;4982351;28;45308;-70
2024/02/04 02:59:35;;;;;;;;;4.00;2.00;;;;;;;;4981924;28;45480;-70
2024/02/04 03:02:01;;;;;;;;;2.00;1.00;;;;;;;;4980218;28;46046;-70
2024/02/04 03:04:26;;;;;;;;;1.00;1.00;;;;;;;;4977272;28;45202;-70
2024/02/04 03:06:51;;;;;;;;;3.00;0.67;;;;;;;;4964458;28;45456;-70
2024/02/04 03:09:16;;;;;;;;;2.00;0.00;;;;;;;;4979738;28;45467;-70
2024/02/04 03:11:42;;;;;;;;;2.00;2.00;;;;;;;;4981801;28;45526;-70
2024/02/04 03:14:07;;;;;;;;;3.75;2.00;;;;;;;;4974098;28;45712;-70
2024/02/04 03:16:32;;;;;;;;;1.00;1.00;;;;;;;;4982121;28;45641;-70
2024/02/04 03:18:58;;;;;;;;;2.00;1.00;;;;;;;;4981547;28;45337;-70
2024/02/04 03:21:23;;;;;;;;;2.00;1.00;;;;;;;;4981886;28;45563;-70
2024/02/04 03:23:48;;;;;;;;;1.00;0.33;;;;;;;;4981502;28;45396;-70
2024/02/04 03:26:17;;;;;;;;;0.33;0.33;;;;;;;;4980511;28;45459;-70
2024/02/04 03:28:42;;;;;;;;;0.25;0.25;;;;;;;;4981546;28;45495;-70
2024/02/04 03:31:07;;;;;;;;;1.00;1.00;;;;;;;;4981746;28;45298;-70
2024/02/04 03:33:32;;;;;;;;;2.00;1.00;;;;;;;;4973124;28;45529;-70
2024/02/04 03:35:57;;;;;;;;;0.00;0.00;;;;;;;;4960150;28;45231;-70
2024/02/04 03:38:23;;;;;;;;;0.00;0.00;;;;;;;;4981313;28;45318;-70
2024/02/04 03:40:49;;;;;;;;;1.00;0.00;;;;;;;;4981250;28;45284;-70
2024/02/04 03:43:14;;;;;;;;;0.50;0.00;;;;;;;;4981241;28;45321;-70
2024/02/04 03:45:39;;;;;;;;;0.75;0.50;;;;;;;;4981660;28;45346;-70
2024/02/04 03:48:05;;;;;;;;;0.00;0.00;;;;;;;;4981120;28;45474;-70
2024/02/04 03:50:30;;;;;;;;;0.00;0.00;;;;;;;;4981353;28;45512;-70
2024/02/04 03:52:55;;;;;;;;;1.67;1.67;;;;;;;;4981386;28;45330;-70
2024/02/04 03:55:20;;;;;;;;;1.00;1.00;;;;;;;;4981641;28;45439;-70
2024/02/04 03:57:46;;;;;;;;;1.00;0.00;;;;;;;;4980885;28;45304;-70
2024/02/04 04:00:11;;;;;;;;;1.50;0.75;;;;;;;;4981156;28;46963;-70
2024/02/04 04:02:37;;;;;;;;;1.00;0.00;;;;;;;;4975271;28;45591;-70
2024/02/04 04:05:02;;;;;;;;;0.67;0.00;;;;;;;;4979821;28;45583;-70
2024/02/04 04:07:27;;;;;;;;;0.00;0.00;;;;;;;;4980886;28;45427;-70
2024/02/04 04:09:52;;;;;;;;;0.33;0.00;;;;;;;;4978504;28;45652;-70
2024/02/04 04:12:17;;;;;;;;;0.67;0.00;;;;;;;;4963098;28;45466;-70
2024/02/04 04:14:43;;;;;;;;;1.00;0.00;;;;;;;;4981015;28;45476;-70
2024/02/04 04:17:08;;;;;;;;;0.50;0.50;;;;;;;;4980892;28;45378;-70
2024/02/04 04:19:35;;;;;;;;;0.00;0.00;;;;;;;;4963402;28;46549;-70
2024/02/04 04:22:01;;;;;;;;;1.50;1.00;;;;;;;;4980724;28;45598;-70
2024/02/04 04:24:26;;;;;;;;;0.00;0.00;;;;;;;;4981098;28;45422;-70
2024/02/04 04:26:51;;;;;;;;;2.00;0.00;;;;;;;;4980751;28;45369;-70
2024/02/04 04:29:16;;;;;;;;;0.00;0.00;;;;;;;;4971325;28;46033;-70
2024/02/04 04:31:42;;;;;;;;;1.00;0.00;;;;;;;;4980567;28;45488;-70
2024/02/04 04:34:07;;;;;;;;;0.33;0.00;;;;;;;;4971875;28;45468;-70
2024/02/04 04:36:32;;;;;;;;;0.00;0.00;;;;;;;;4961575;28;45360;-70
2024/02/04 04:38:57;;;;;;;;;3.00;1.00;;;;;;;;4980224;28;46325;-70
2024/02/04 04:41:22;;;;;;;;;0.33;0.00;;;;;;;;4980234;28;45419;-70
2024/02/04 04:43:47;;;;;;;;;0.00;0.00;;;;;;;;4980370;28;45612;-70
2024/02/04 04:46:13;;;;;;;;;1.00;0.00;;;;;;;;4980183;28;45373;-70
2024/02/04 04:48:38;;;;;;;;;0.00;0.00;;;;;;;;4980109;28;45451;-70
2024/02/04 04:51:03;;;;;;;;;2.00;0.00;;;;;;;;4980469;28;45453;-70
2024/02/04 04:53:28;;;;;;;;;0.00;0.00;;;;;;;;4980390;28;45277;-70
2024/02/04 04:55:53;;;;;;;;;0.75;0.00;;;;;;;;4980264;28;45242;-70
2024/02/04 04:58:19;;;;;;;;;1.67;1.00;;;;;;;;4979993;28;46410;-70
2024/02/04 05:00:44;;;;;;;;;0.00;0.00;;;;;;;;4980149;28;45345;-70
2024/02/04 05:03:09;;;;;;;;;0.00;0.00;;;;;;;;4961272;28;45386;-70
2024/02/04 05:05:34;;;;;;;;;0.00;0.00;;;;;;;;4980028;28;45301;-70
2024/02/04 05:07:59;;;;;;;;;0.00;0.00;;;;;;;;4962296;28;47564;-70
2024/02/04 05:10:25;;;;;;;;;0.00;0.00;;;;;;;;4974210;28;45424;-70
2024/02/04 05:12:50;;;;;;;;;0.00;0.00;;;;;;;;4979650;28;45372;-70
2024/02/04 05:15:15;;;;;;;;;0.00;0.00;;;;;;;;4980102;28;45281;-70
2024/02/04 05:17:40;;;;;;;;;1.75;0.00;;;;;;;;4979861;28;45320;-70
2024/02/04 05:20:07;;;;;;;;;0.00;0.00;;;;;;;;4979835;28;45262;-70
2024/02/04 05:22:32;;;;;;;;;0.00;0.00;;;;;;;;4980067;28;45452;-70
2024/02/04 05:24:58;;;;;;;;;0.00;0.00;;;;;;;;4979996;28;45532;-70
2024/02/04 05:27:23;;;;;;;;;0.00;0.00;;;;;;;;4977313;28;45528;-70
2024/02/04 05:29:48;;;;;;;;;0.67;0.00;;;;;;;;4972946;28;45481;-70
2024/02/04 05:32:14;;;;;;;;;1.00;0.00;;;;;;;;4978529;28;45400;-70
2024/02/04 05:34:39;;;;;;;;;0.00;0.00;;;;;;;;4979463;28;45377;-70
2024/02/04 05:37:04;;;;;;;;;0.00;0.00;;;;;;;;4969335;28;46128;-70
2024/02/04 05:39:29;;;;;;;;;0.00;0.00;;;;;;;;4979818;28;45467;-70
2024/02/04 05:41:55;;;;;;;;;0.00;0.00;;;;;;;;4979529;28;45345;-70
2024/02/04 05:44:20;;;;;;;;;0.00;0.00;;;;;;;;4979691;28;45373;-70
2024/02/04 05:46:45;;;;;;;;;0.67;0.00;;;;;;;;4979510;28;46437;-70
2024/02/04 05:49:11;;;;;;;;;1.00;0.00;;;;;;;;4950992;28;45521;-70
2024/02/04 05:51:40;;;;;;;;;0.00;0.00;;;;;;;;4976777;28;45543;-70
2024/02/04 05:54:05;;;;;;;;;0.00;0.00;;;;;;;;4979593;28;45348;-70
2024/02/04 05:56:30;;;;;;;;;1.00;0.00;;;;;;;;4979267;28;45549;-70
2024/02/04 05:58:56;;;;;;;;;0.00;0.00;;;;;;;;4979542;28;45241;-70
2024/02/04 06:01:21;;;;;;;;;1.00;0.00;;;;;;;;4979061;28;45445;-70
2024/02/04 06:03:46;;;;;;;;;0.00;0.00;;;;;;;;4978052;28;45484;-70
2024/02/04 06:06:15;;;;;;;;;0.00;0.00;;;;;;;;4979017;28;45458;-70
2024/02/04 06:08:41;;;;;;;;;1.00;0.00;;;;;;;;4975358;28;45549;-70
2024/02/04 06:11:09;;;;;;;;;0.00;0.00;;;;;;;;4977531;28;45447;-70
2024/02/04 06:13:34;;;;;;;;;0.50;0.50;;;;;;;;4979162;28;45331;-70
2024/02/04 06:15:59;;;;;;;;;0.33;0.00;;;;;;;;4979077;28;47233;-70
2024/02/04 06:18:24;;;;;;;;;0.00;0.00;;;;;;;;4977704;28;45242;-70
2024/02/04 06:20:49;;;;;;;;;0.00;0.00;;;;;;;;4961521;28;45617;-70
2024/02/04 06:23:15;;;;;;;;;0.00;0.00;;;;;;;;4979118;28;45329;-70
2024/02/04 06:25:40;;;;;;;;;0.00;0.00;;;;;;;;4978943;28;45433;-70
2024/02/04 06:28:06;;;;;;;;;0.00;0.00;;;;;;;;4979066;28;45319;-70
2024/02/04 06:30:31;;;;;;;;;0.00;0.00;;;;;;;;4979152;28;45711;-70
2024/02/04 06:32:57;;;;;;;;;0.00;0.00;;;;;;;;4969161;28;45369;-70
2024/02/04 06:35:22;;;;;;;;;2.00;0.00;;;;;;;;4975322;28;45487;-70
2024/02/04 06:37:47;;;;;;;;;0.00;0.00;;;;;;;;4961485;28;45460;-70
2024/02/04 06:40:12;;;;;;;;;0.00;0.00;;;;;;;;4979037;28;45474;-70
2024/02/04 06:42:37;;;;;;;;;0.00;0.00;;;;;;;;4978973;28;45594;-70
2024/02/04 06:45:03;;;;;;;;;0.00;0.00;;;;;;;;4978793;28;45559;-70
2024/02/04 06:47:28;;;;;;;;;1.00;0.00;;;;;;;;4977898;28;45437;-70
2024/02/04 06:49:54;;;;;;;;;0.00;0.00;;;;;;;;4976092;28;45480;-70
2024/02/04 06:52:19;;;;;;;;;0.00;0.00;;;;;;;;4978872;28;45334;-71
2024/02/04 06:54:44;;;;;;;;;0.00;0.00;;;;;;;;4978620;28;45377;-70
2024/02/04 06:57:09;;;;;;;;;0.00;0.00;;;;;;;;4978834;28;45326;-70
2024/02/04 06:59:35;;;;;;;;;0.33;0.00;;;;;;;;4961509;28;45486;-70
2024/02/04 07:02:00;;;;;;;;;0.00;0.00;;;;;;;;4981735;28;45547;-70
2024/02/04 07:04:25;;;;;;;;;0.00;0.00;;;;;;;;4963524;28;47131;-70
2024/02/04 07:06:53;;;;;;;;;1.00;0.00;;;;;;;;4964426;28;46380;-70
2024/02/04 07:09:18;;;;;;;;;0.00;0.00;;;;;;;;4981700;28;45393;-70
2024/02/04 07:11:44;;;;;;;;;0.00;0.00;;;;;;;;4981786;28;45297;-70
2024/02/04 07:14:09;;;;;;;;;0.00;0.00;;;;;;;;4981377;28;46040;-70
2024/02/04 07:16:34;;;;;;;;;0.00;0.00;;;;;;;;4982036;28;45352;-70
2024/02/04 07:19:00;;;;;;;;;0.00;0.00;;;;;;;;4963460;28;45673;-70
2024/02/04 07:21:25;;;;;;;;;1.67;0.00;;;;;;;;4963670;28;45331;-66
2024/02/04 07:23:50;;;;;;;;;0.00;0.00;;;;;;;;4981481;28;45436;-66
2024/02/04 07:26:15;;;;;;;;;0.00;0.00;;;;;;;;4981615;28;45450;-67
2024/02/04 07:28:41;;;;;;;;;0.00;0.00;;;;;;;;4953180;28;45350;-67
2024/02/04 07:31:06;;;;;;;;;0.00;0.00;;;;;;;;4962149;28;45548;-67
2024/02/04 07:33:34;;;;;;;;;0.00;0.00;;;;;;;;4961604;28;47623;-68
2024/02/04 07:35:59;;;;;;;;;0.00;0.00;;;;;;;;4961099;28;45456;-66
2024/02/04 07:38:24;;;;;;;;;0.00;0.00;;;;;;;;4978285;28;45505;-67
2024/02/04 07:40:49;;;;;;;;;0.00;0.00;;;;;;;;4985284;28;45590;-67
2024/02/04 07:43:17;;;;;;;;;0.00;0.00;;;;;;;;4961267;28;46462;-67
2024/02/04 07:45:43;;;;;;;;;0.00;0.00;;;;;;;;4979802;28;45302;-67
2024/02/04 07:48:09;;;;;;;;;0.00;0.00;;;;;;;;4981090;28;45238;-67
2024/02/04 07:50:34;;;;;;;;;0.00;0.00;;;;;;;;4980304;28;45465;-66
2024/02/04 07:52:59;;;;;;;;;0.00;0.00;;;;;;;;4947349;28;47298;-66
2024/02/04 07:55:25;;;;;;;;;0.00;0.00;;;;;;;;4955952;28;45786;-66
2024/02/04 07:57:50;;;;;;;;;0.00;0.00;;;;;;;;4961527;28;45334;-66
2024/02/04 08:00:15;;;;;;;;;0.00;0.00;;;;;;;;4977950;28;45401;-66
2024/02/04 08:02:41;;;;;;;;;1.00;1.00;;;;;;;;4959238;28;46337;-66
2024/02/04 08:05:06;;;;;;;;;0.00;0.00;;;;;;;;4980542;28;45442;-66
2024/02/04 08:07:31;;;;;;;;;1.00;0.00;;;;;;;;4961950;28;45580;-66
2024/02/04 08:09:57;;;;;;;;;0.00;0.00;;;;;;;;4960199;28;45487;-65
2024/02/04 08:12:22;;;;;;;;;0.00;0.00;;;;;;;;4979332;28;45544;-66
2024/02/04 08:14:50;;;;;;;;;0.00;0.00;;;;;;;;4955626;28;45437;-67
2024/02/04 08:17:15;;;;;;;;;0.00;0.00;;;;;;;;4977762;28;45621;-66
2024/02/04 08:19:41;;;;;;;;;0.00;0.00;;;;;;;;4960900;28;46000;-66
2024/02/04 08:22:06;;;;;;;;;0.00;0.00;;;;;;;;4971015;28;45633;-66
2024/02/04 08:24:32;;;;;;;;;0.00;0.00;;;;;;;;4957017;28;45459;-66
2024/02/04 08:26:58;;;;;;;;;0.00;0.00;;;;;;;;4956993;28;45651;-70
2024/02/04 08:29:23;;;;;;;;;0.00;0.00;;;;;;;;4959331;28;45459;-69
2024/02/04 08:31:48;;;;;;;;;0.00;0.00;;;;;;;;4970515;28;45587;-69
2024/02/04 08:34:13;;;;;;;;;2.00;0.33;;;;;;;;4977140;28;45437;-69
2024/02/04 08:36:39;;;;;;;;;0.00;0.00;;;;;;;;4975690;28;45375;-69
2024/02/04 08:39:04;;;;;;;;;0.00;0.00;;;;;;;;4972159;28;45240;-70
2024/02/04 08:41:29;;;;;;;;;0.00;0.00;;;;;;;;4980369;28;45622;-70
2024/02/04 08:43:54;;;;;;;;;0.00;0.00;;;;;;;;4980024;28;45324;-71
2024/02/04 08:46:19;;;;;;;;;0.00;0.00;;;;;;;;4980194;28;45364;-70
2024/02/04 08:48:45;;;;;;;;;0.00;0.00;;;;;;;;4961722;28;45497;-70
2024/02/04 08:51:13;;;;;;;;;1.00;1.00;;;;;;;;4980069;28;46057;-69
2024/02/04 08:53:38;;;;;;;;;2.00;0.00;;;;;;;;4969532;28;45443;-69
2024/02/04 08:56:05;;;;;;;;;0.00;0.00;;;;;;;;4979846;28;45309;-70
2024/02/04 08:58:30;;;;;;;;;0.25;0.25;;;;;;;;4978136;28;45502;-70
2024/02/04 09:00:56;;;;;;;;;1.00;1.00;;;;;;;;4980052;28;45453;-70
2024/02/04 09:03:21;;;;;;;;;1.50;0.25;;;;;;;;4977157;28;45664;-70
2024/02/04 09:05:46;;;;;;;;;1.00;1.00;;;;;;;;4980274;28;45463;-70
2024/02/04 09:08:11;;;;;;;;;1.00;0.00;;;;;;;;4970895;28;45536;-70
2024/02/04 09:10:37;;;;;;;;;0.75;0.75;;;;;;;;4951356;28;47409;-70
2024/02/04 09:13:02;;;;;;;;;1.00;1.00;;;;;;;;4975277;28;45422;-70
2024/02/04 09:15:27;;;;;;;;;1.00;1.00;;;;;;;;4951840;28;45368;-70
2024/02/04 09:17:52;;;;;;;;;2.00;0.00;;;;;;;;4977851;28;45818;-69
2024/02/04 09:20:18;;;;;;;;;0.00;0.00;;;;;;;;4978624;28;45353;-69
2024/02/04 09:22:43;;;;;;;;;1.00;1.00;;;;;;;;4969778;28;46240;-69
2024/02/04 09:25:08;;;;;;;;;1.00;0.00;;;;;;;;4976509;28;45313;-70
2024/02/04 09:27:34;;;;;;;;;1.00;0.00;;;;;;;;4971954;28;45340;-70
2024/02/04 09:29:59;;;;;;;;;0.25;0.25;;;;;;;;4957428;28;47918;-70
2024/02/04 09:32:24;;;;;;;;;0.00;0.00;;;;;;;;4968909;28;45672;-70
2024/02/04 09:34:50;;;;;;;;;0.67;0.67;;;;;;;;4978281;28;45456;-70
2024/02/04 09:37:16;;;;;;;;;0.00;0.00;;;;;;;;4977950;28;45337;-70
2024/02/04 09:39:41;;;;;;;;;0.00;0.00;;;;;;;;4971808;28;47179;-70
2024/02/04 09:42:07;;;;;;;;;0.00;0.00;;;;;;;;4972837;28;45293;-70
2024/02/04 09:44:33;;;;;;;;;0.00;0.00;;;;;;;;4948006;28;45733;-70
2024/02/04 09:47:00;;;;;;;;;0.00;0.00;;;;;;;;4978486;28;45409;-70
2024/02/04 09:49:27;;;;;;;;;0.00;0.00;;;;;;;;4952680;28;48547;-70
2024/02/04 09:51:53;;;;;;;;;0.25;0.25;;;;;;;;4978186;28;45597;-70
2024/02/04 09:54:18;;;;;;;;;1.00;1.00;;;;;;;;4972185;28;45274;-70
2024/02/04 09:56:44;;;;;;;;;0.00;0.00;;;;;;;;4959777;28;45316;-70
2024/02/04 09:59:09;;;;;;;;;0.00;0.00;;;;;;;;4968288;28;45685;-70
2024/02/04 10:01:35;;;;;;;;;0.00;0.00;;;;;;;;4973166;28;45373;-69
2024/02/04 10:04:01;;;;;;;;;0.00;0.00;;;;;;;;4942589;28;45451;-70
2024/02/04 10:06:26;;;;;;;;;0.00;0.00;;;;;;;;4978178;28;45526;-66
2024/02/04 10:08:52;;;;;;;;;0.00;0.00;;;;;;;;4977621;28;45448;-66
2024/02/04 10:11:17;;;;;;;;;0.33;0.00;;;;;;;;4971381;28;46176;-66
2024/02/04 10:13:46;;;;;;;;;1.00;0.00;;;;;;;;4977664;28;45798;-66
2024/02/04 10:16:15;;;;;;;;;0.00;0.00;;;;;;;;4977706;28;45448;-67
2024/02/04 10:18:48;;;;;;;;;0.00;0.00;;;;;;;;4965203;28;46827;-66
2024/02/04 10:21:18;;;;;;;;;0.00;0.00;;;;;;;;4960512;28;45309;-70
2024/02/04 10:23:43;;;;;;;;;0.00;0.00;;;;;;;;4970734;28;45539;-70
2024/02/04 10:26:08;;;;;;;;;0.00;0.00;;;;;;;;4976511;28;45464;-70
2024/02/04 10:28:33;;;;;;;;;0.00;0.00;;;;;;;;4958885;28;45474;-70
2024/02/04 10:30:58;;;;;;;;;0.00;0.00;;;;;;;;4966249;28;45672;-70
2024/02/04 10:33:23;;;;;;;;;0.00;0.00;;;;;;;;4957563;28;45608;-70
2024/02/04 10:35:49;;;;;;;;;0.00;0.00;;;;;;;;4967546;28;45302;-70
2024/02/04 10:38:14;;;;;;;;;0.00;0.00;;;;;;;;4976926;28;46335;-70
2024/02/04 10:40:39;;;;;;;;;0.00;0.00;;;;;;;;4952293;28;45548;-70
2024/02/04 10:43:07;;;;;;;;;0.00;0.00;;;;;;;;4969515;28;45429;-70
2024/02/04 10:45:34;;;;;;;;;0.00;0.00;;;;;;;;4977661;28;45585;-70
2024/02/04 10:48:01;;;;;;;;;1.00;0.00;;;;;;;;4979478;28;45514;-70
2024/02/04 10:50:27;;;;;;;;;0.00;0.00;;;;;;;;4953548;28;45737;-70
2024/02/04 10:52:53;;;;;;;;;0.00;0.00;;;;;;;;4977829;28;45387;-69
2024/02/04 10:55:19;;;;;;;;;0.00;0.00;;;;;;;;4980647;28;45392;-69
2024/02/04 10:57:47;;;;;;;;;0.00;0.00;;;;;;;;4973933;28;45488;-70
2024/02/04 11:00:12;;;;;;;;;1.50;0.00;;;;;;;;4968888;28;45327;-70
2024/02/04 11:02:38;;;;;;;;;0.00;0.00;;;;;;;;4955765;28;45753;-70
2024/02/04 11:05:05;;;;;;;;;0.00;0.00;;;;;;;;4980605;28;45333;-69
2024/02/04 11:07:36;;;;;;;;;0.25;0.00;;;;;;;;4979154;28;46139;-69
2024/02/04 11:10:02;;;;;;;;;0.00;0.00;;;;;;;;4962978;28;45759;-69
2024/02/04 11:12:29;;;;;;;;;0.00;0.00;;;;;;;;4959225;28;45465;-71
2024/02/04 11:14:58;;;;;;;;;0.00;0.00;;;;;;;;4961926;28;45447;-70
2024/02/04 11:17:49;;;;;;;;;0.00;0.00;;;;;;;;4957540;28;46820;-70
2024/02/04 11:20:14;;;;;;;;;0.00;0.00;;;;;;;;4963365;28;45378;-70
2024/02/04 11:22:42;;;;;;;;;1.00;0.00;;;;;;;;4974552;28;45317;-70
2024/02/04 11:25:26;;;;;;;;;0.00;0.00;;;;;;;;4952795;28;46082;-70
2024/02/04 11:27:52;;;;;;;;;0.00;0.00;;;;;;;;4951317;28;47609;-70
2024/02/04 11:30:17;;;;;;;;;0.00;0.00;;;;;;;;4960635;28;45382;-70
2024/02/04 11:32:42;;;;;;;;;0.00;0.00;;;;;;;;4974935;28;45669;-70
2024/02/04 11:35:08;;;;;;;;;0.00;0.00;;;;;;;;4981315;28;45534;-70
2024/02/04 11:37:33;;;;;;;;;2.00;0.00;;;;;;;;4980896;28;45430;-70
2024/02/04 11:39:59;;;;;;;;;0.00;0.00;;;;;;;;4981493;28;45425;-70
2024/02/04 11:42:25;;;;;;;;;0.00;0.00;;;;;;;;4977184;28;45369;-70
2024/02/04 11:44:50;;;;;;;;;0.00;0.00;;;;;;;;4963629;28;45490;-70
2024/02/04 11:47:25;;;;;;;;;0.00;0.00;;;;;;;;4979686;28;45373;-69
2024/02/04 11:49:58;;;;;;;;;0.00;0.00;;;;;;;;4963221;28;45742;-69
2024/02/04 11:52:23;;;;;;;;;2.00;0.00;;;;;;;;4980218;28;45465;-70
2024/02/04 11:54:48;;;;;;;;;0.50;0.25;;;;;;;;4981314;28;45425;-70
2024/02/04 11:57:14;;;;;;;;;0.25;0.25;;;;;;;;4980476;28;45568;-70
2024/02/04 11:59:39;;;;;;;;;0.00;0.00;;;;;;;;4981187;28;45377;-70
2024/02/04 12:02:06;;;;;;;;;2.25;1.00;;;;;;;;4979037;28;45592;-70
2024/02/04 12:04:31;;;;;;;;;0.00;0.00;;;;;;;;4963357;28;45395;-70
2024/02/04 12:06:57;;;;;;;;;0.00;0.00;;;;;;;;4979595;28;45488;-70
2024/02/04 12:09:22;;;;;;;;;0.00;0.00;;;;;;;;4980659;28;45426;-70
2024/02/04 12:11:47;;;;;;;;;0.00;0.00;;;;;;;;4979300;28;45309;-70
2024/02/04 12:14:13;;;;;;;;;0.00;0.00;;;;;;;;4945093;28;45505;-70
2024/02/04 12:16:38;;;;;;;;;0.00;0.00;;;;;;;;4962743;28;45456;-70
2024/02/04 12:19:04;;;;;;;;;0.00;0.00;;;;;;;;4973853;28;45318;-70
2024/02/04 12:21:29;;;;;;;;;0.00;0.00;;;;;;;;4963253;28;45266;-70
2024/02/04 12:23:55;;;;;;;;;1.00;1.00;;;;;;;;4980154;28;45582;-70
2024/02/04 12:26:20;;;;;;;;;0.00;0.00;;;;;;;;4980515;28;45977;-70
2024/02/04 12:28:46;;;;;;;;;0.00;0.00;;;;;;;;4962069;28;45597;-70
2024/02/04 12:31:18;;;;;;;;;0.00;0.00;;;;;;;;4967489;28;45524;-70
2024/02/04 12:33:49;;;;;;;;;0.00;0.00;;;;;;;;4979927;28;45586;-70
2024/02/04 12:36:15;;;;;;;;;1.00;0.00;;;;;;;;4980357;28;45350;-70
2024/02/04 12:38:40;;;;;;;;;0.00;0.00;;;;;;;;4979731;28;45555;-70
2024/02/04 12:41:05;;;;;;;;;0.00;0.00;;;;;;;;4943355;28;45363;-70
2024/02/04 12:43:30;;;;;;;;;0.00;0.00;;;;;;;;4956979;28;45441;-70
2024/02/04 12:45:56;;;;;;;;;0.00;0.00;;;;;;;;4949698;28;46119;-69
2024/02/04 12:48:23;;;;;;;;;1.75;1.00;;;;;;;;4967809;28;45405;-70
2024/02/04 12:50:48;;;;;;;;;0.25;0.25;;;;;;;;4967714;28;45340;-70
2024/02/04 12:53:15;;;;;;;;;0.00;0.00;;;;;;;;4969462;28;45310;-70
2024/02/04 12:55:42;;;;;;;;;1.00;0.75;;;;;;;;4948880;28;47212;-70
2024/02/04 12:58:09;;;;;;;;;1.00;1.00;;;;;;;;4973369;28;45428;-70
2024/02/04 13:00:35;;;;;;;;;0.00;0.00;;;;;;;;4980270;28;45388;-70
2024/02/04 13:03:01;;;;;;;;;0.50;0.50;;;;;;;;4961068;28;45427;-70
2024/02/04 13:05:26;;;;;;;;;0.25;0.00;;;;;;;;4962425;28;47163;-70
2024/02/04 13:07:55;;;;;;;;;0.00;0.00;;;;;;;;4973443;28;45331;-70
2024/02/04 13:10:20;;;;;;;;;0.00;0.00;;;;;;;;4980096;28;45374;-70
2024/02/04 13:12:45;;;;;;;;;0.00;0.00;;;;;;;;4974978;28;45423;-70
2024/02/04 13:15:10;;;;;;;;;1.00;0.00;;;;;;;;4968295;28;45537;-70
2024/02/04 13:17:35;;;;;;;;;0.00;0.00;;;;;;;;4979392;28;45468;-70
2024/02/04 13:20:01;;;;;;;;;0.00;0.00;;;;;;;;4962467;28;45596;-70
2024/02/04 13:22:26;;;;;;;;;1.67;0.67;;;;;;;;4978111;28;45554;-70
2024/02/04 13:24:51;;;;;;;;;1.67;0.00;;;;;;;;4979673;28;45354;-70
2024/02/04 13:27:17;;;;;;;;;0.00;0.00;;;;;;;;4979558;28;45321;-70
2024/02/04 13:29:42;;;;;;;;;2.00;0.00;;;;;;;;4974663;28;45532;-70
2024/02/04 13:32:08;;;;;;;;;1.33;0.00;;;;;;;;4979610;28;45527;-70
2024/02/04 13:34:33;;;;;;;;;0.50;0.50;;;;;;;;4961485;28;46990;-70
2024/02/04 13:36:58;;;;;;;;;0.00;0.00;;;;;;;;4960374;28;45429;-70
2024/02/04 13:39:23;;;;;;;;;0.00;0.00;;;;;;;;4961010;28;45599;-70
2024/02/04 13:41:49;;;;;;;;;0.00;0.00;;;;;;;;4961525;28;45337;-70
2024/02/04 13:44:14;;;;;;;;;0.00;0.00;;;;;;;;4979014;28;46310;-70
2024/02/04 13:46:42;;;;;;;;;0.00;0.00;;;;;;;;4978844;28;45476;-70
2024/02/04 13:49:08;;;;;;;;;0.25;0.25;;;;;;;;4977500;28;45452;-69
2024/02/04 13:51:33;;;;;;;;;0.00;0.00;;;;;;;;4978576;28;45481;-71
2024/02/04 13:53:58;;;;;;;;;0.00;0.00;;;;;;;;4979134;28;45473;-70
2024/02/04 13:56:24;;;;;;;;;3.00;3.00;;;;;;;;4979115;28;45373;-70
2024/02/04 13:58:49;;;;;;;;;0.00;0.00;;;;;;;;4960033;28;45335;-70
2024/02/04 14:01:15;;;;;;;;;0.00;0.00;;;;;;;;4971797;28;45378;-70
2024/02/04 14:03:40;;;;;;;;;0.00;0.00;;;;;;;;4972439;28;46215;-70
2024/02/04 14:06:05;;;;;;;;;0.00;0.00;;;;;;;;4979138;28;45338;-70
2024/02/04 14:08:31;;;;;;;;;0.00;0.00;;;;;;;;4978929;28;45558;-70
2024/02/04 14:10:56;;;;;;;;;0.00;0.00;;;;;;;;4981438;28;45399;-70
2024/02/04 14:13:21;;;;;;;;;2.50;1.00;;;;;;;;4975712;28;46203;-70
2024/02/04 14:15:46;;;;;;;;;1.00;1.00;;;;;;;;4974241;28;45495;-70
2024/02/04 14:18:12;;;;;;;;;0.00;0.00;;;;;;;;4982177;28;45504;-70
2024/02/04 14:20:37;;;;;;;;;2.00;0.00;;;;;;;;4982533;28;45318;-70
2024/02/04 14:23:02;;;;;;;;;0.00;0.00;;;;;;;;4968947;28;46281;-70
2024/02/04 14:25:27;;;;;;;;;1.00;1.00;;;;;;;;4982343;28;45659;-70
2024/02/04 14:27:52;;;;;;;;;1.00;1.00;;;;;;;;4979160;28;45349;-70
2024/02/04 14:30:18;;;;;;;;;0.00;0.00;;;;;;;;4964942;28;45426;-70
2024/02/04 14:32:43;;;;;;;;;0.00;0.00;;;;;;;;4961479;28;48294;-70
2024/02/04 14:35:09;;;;;;;;;0.00;0.00;;;;;;;;4981209;28;45329;-70